createdAt,value
2019-05-09T00:00:07.169Z,6.88
2019-05-09T00:02:43.605Z,6.87
2019-05-09T00:05:17.275Z,6.85
2019-05-09T00:07:53.197Z,6.84
2019-05-09T00:10:38.489Z,6.82
2019-05-09T00:13:03.513Z,6.82
2019-05-09T00:15:37.607Z,6.85
2019-05-09T00:18:11.071Z,6.87
2019-05-09T00:21:03.999Z,6.85
2019-05-09T00:23:37.345Z,6.85
2019-05-09T00:26:10.665Z,6.84
2019-05-09T00:28:46.157Z,6.84
2019-05-09T00:31:30.926Z,6.81
2019-05-09T00:34:09.410Z,6.78
2019-05-09T00:36:43.875Z,6.76
2019-05-09T00:39:18.031Z,6.76
2019-05-09T00:41:53.867Z,6.75
2019-05-09T00:44:29.561Z,6.77
2019-05-09T00:47:23.846Z,6.76
2019-05-09T00:49:57.740Z,6.76
2019-05-09T00:52:33.776Z,6.75
2019-05-09T00:55:07.193Z,6.74
2019-05-09T00:57:41.305Z,6.74
2019-05-09T01:00:17.155Z,6.75
2019-05-09T01:02:51.429Z,6.75
2019-05-09T01:05:25.305Z,6.76
2019-05-09T01:07:59.311Z,6.76
2019-05-09T01:10:34.254Z,6.78
2019-05-09T01:13:07.990Z,6.79
2019-05-09T01:15:41.179Z,6.78
2019-05-09T01:18:15.157Z,6.77
2019-05-09T01:20:48.493Z,6.77
2019-05-09T01:23:23.416Z,6.76
2019-05-09T01:25:57.631Z,6.74
2019-05-09T01:28:33.968Z,6.75
2019-05-09T01:31:07.559Z,6.74
2019-05-09T01:33:53.294Z,6.72
2019-05-09T01:36:28.121Z,6.71
2019-05-09T01:39:03.262Z,6.70
2019-05-09T01:41:37.644Z,6.70
2019-05-09T01:44:13.393Z,6.69
2019-05-09T01:46:47.722Z,6.69
2019-05-09T01:49:23.279Z,6.68
2019-05-09T01:51:57.797Z,6.68
2019-05-09T01:54:33.232Z,6.65
2019-05-09T01:57:07.323Z,6.64
2019-05-09T01:59:40.438Z,6.65
2019-05-09T02:02:14.525Z,6.63
2019-05-09T02:04:48.629Z,6.63
2019-05-09T02:07:23.742Z,6.64
2019-05-09T02:09:57.817Z,6.63
2019-05-09T02:12:31.021Z,6.64
2019-05-09T02:15:20.063Z,6.66
2019-05-09T02:18:04.777Z,6.65
2019-05-09T02:20:37.189Z,6.67
2019-05-09T02:23:11.464Z,6.67
2019-05-09T02:25:45.709Z,6.67
2019-05-09T02:28:19.665Z,6.67
2019-05-09T02:30:55.028Z,6.67
2019-05-09T02:33:28.550Z,6.67
2019-05-09T02:36:02.374Z,6.62
2019-05-09T02:38:39.174Z,6.63
2019-05-09T02:41:12.446Z,6.62
2019-05-09T02:43:49.265Z,6.62
2019-05-09T02:46:39.261Z,6.62
2019-05-09T02:49:13.163Z,6.63
2019-05-09T02:51:48.769Z,6.62
2019-05-09T02:54:22.911Z,6.57
2019-05-09T02:56:58.099Z,6.59
2019-05-09T02:59:33.175Z,6.54
2019-05-09T03:02:11.364Z,6.54
2019-05-09T03:04:45.531Z,6.56
2019-05-09T03:07:20.367Z,6.57
2019-05-09T03:09:54.675Z,6.57
2019-05-09T03:12:34.637Z,6.55
2019-05-09T03:15:05.573Z,6.58
2019-05-09T03:17:39.583Z,6.60
2019-05-09T03:20:30.211Z,6.63
2019-05-09T03:23:04.255Z,6.66
2019-05-09T03:25:40.534Z,6.69
2019-05-09T03:28:14.510Z,6.71
2019-05-09T03:30:59.183Z,6.74
2019-05-09T03:33:35.468Z,6.78
2019-05-09T03:36:08.097Z,6.83
2019-05-09T03:38:41.206Z,6.86
2019-05-09T03:41:17.579Z,6.92
2019-05-09T03:43:50.991Z,6.97
2019-05-09T03:46:34.979Z,7.01
2019-05-09T03:49:13.644Z,7.09
2019-05-09T03:51:48.213Z,7.15
2019-05-09T03:54:22.447Z,7.22
2019-05-09T03:56:57.343Z,7.29
2019-05-09T03:59:31.308Z,7.38
2019-05-09T04:02:04.738Z,7.45
2019-05-09T04:04:38.668Z,7.53
2019-05-09T04:07:12.706Z,7.57
2019-05-09T04:09:47.850Z,7.65
2019-05-09T04:12:20.737Z,7.75
2019-05-09T04:14:54.681Z,7.81
2019-05-09T04:17:29.766Z,7.86
2019-05-09T04:20:04.117Z,7.94
2019-05-09T04:22:38.623Z,7.98
2019-05-09T04:25:18.108Z,8.06
2019-05-09T04:27:53.071Z,8.14
2019-05-09T04:30:27.512Z,8.18
2019-05-09T04:33:01.431Z,8.22
2019-05-09T04:35:35.605Z,8.26
2019-05-09T04:38:09.612Z,8.28
2019-05-09T04:40:44.741Z,8.31
2019-05-09T04:43:26.903Z,8.31
2019-05-09T04:45:57.951Z,8.32
2019-05-09T04:48:37.595Z,8.35
2019-05-09T04:51:11.843Z,8.36
2019-05-09T04:53:45.124Z,8.37
2019-05-09T04:56:20.777Z,8.40
2019-05-09T04:58:54.905Z,8.41
2019-05-09T05:01:38.772Z,8.42
2019-05-09T05:04:11.752Z,8.45
2019-05-09T05:06:47.781Z,8.44
2019-05-09T05:09:21.780Z,8.49
2019-05-09T05:11:57.986Z,8.54
2019-05-09T05:14:31.421Z,8.58
2019-05-09T05:17:10.190Z,8.61
2019-05-09T05:19:41.177Z,8.68
2019-05-09T05:22:18.120Z,8.73
2019-05-09T05:24:55.704Z,8.76
2019-05-09T05:27:29.089Z,8.81
2019-05-09T05:30:02.416Z,8.86
2019-05-09T05:32:38.605Z,8.94
2019-05-09T05:35:20.499Z,8.99
2019-05-09T05:37:54.486Z,9.04
2019-05-09T05:40:32.967Z,9.10
2019-05-09T05:43:04.669Z,9.16
2019-05-09T05:45:40.260Z,9.19
2019-05-09T05:48:17.537Z,9.26
2019-05-09T05:50:51.590Z,9.32
2019-05-09T05:53:27.617Z,9.40
2019-05-09T05:56:01.485Z,9.47
2019-05-09T05:58:35.742Z,9.58
2019-05-09T06:01:09.863Z,9.68
2019-05-09T06:03:43.266Z,9.78
2019-05-09T06:06:17.595Z,9.88
2019-05-09T06:08:51.925Z,9.98
2019-05-09T06:11:28.153Z,10.08
2019-05-09T06:14:08.704Z,10.16
2019-05-09T06:16:37.838Z,10.26
2019-05-09T06:19:11.966Z,10.32
2019-05-09T06:21:45.271Z,10.38
2019-05-09T06:24:19.421Z,10.39
2019-05-09T06:26:53.517Z,10.42
2019-05-09T06:29:28.565Z,10.48
2019-05-09T06:32:02.398Z,10.58
2019-05-09T06:34:39.637Z,10.64
2019-05-09T06:37:11.757Z,10.70
2019-05-09T06:39:45.022Z,10.73
2019-05-09T06:42:19.209Z,10.75
2019-05-09T06:45:03.319Z,10.79
2019-05-09T06:47:38.984Z,10.82
2019-05-09T06:50:18.458Z,10.89
2019-05-09T06:52:52.524Z,10.98
2019-05-09T06:55:27.637Z,11.04
2019-05-09T06:58:04.018Z,11.10
2019-05-09T07:00:39.743Z,11.17
2019-05-09T07:03:18.555Z,11.20
2019-05-09T07:05:54.470Z,11.21
2019-05-09T07:08:39.449Z,11.26
2019-05-09T07:11:13.658Z,11.33
2019-05-09T07:13:47.795Z,11.36
2019-05-09T07:16:20.984Z,11.41
2019-05-09T07:18:54.981Z,11.50
2019-05-09T07:21:48.502Z,11.53
2019-05-09T07:24:22.665Z,11.61
2019-05-09T07:26:55.816Z,11.73
2019-05-09T07:29:31.455Z,11.82
2019-05-09T07:32:07.667Z,11.86
2019-05-09T07:34:47.411Z,11.91
2019-05-09T07:37:21.901Z,11.98
2019-05-09T07:39:57.730Z,12.04
2019-05-09T07:42:31.810Z,12.12
2019-05-09T07:45:09.114Z,12.20
2019-05-09T07:47:43.276Z,12.33
2019-05-09T07:50:18.984Z,12.45
2019-05-09T07:52:52.648Z,12.52
2019-05-09T07:55:27.552Z,12.54
2019-05-09T07:58:01.668Z,12.64
2019-05-09T08:00:35.241Z,12.79
2019-05-09T08:03:13.032Z,12.81
2019-05-09T08:05:45.093Z,12.79
2019-05-09T08:08:18.753Z,12.81
2019-05-09T08:10:52.822Z,12.86
2019-05-09T08:13:28.783Z,13.00
2019-05-09T08:16:00.947Z,13.13
2019-05-09T08:18:37.444Z,13.24
2019-05-09T08:21:10.751Z,13.37
2019-05-09T08:23:44.797Z,13.44
2019-05-09T08:26:19.131Z,13.57
2019-05-09T08:28:53.217Z,13.63
2019-05-09T08:31:28.062Z,13.74
2019-05-09T08:34:02.289Z,13.96
2019-05-09T08:36:38.329Z,14.06
2019-05-09T08:39:12.202Z,14.27
2019-05-09T08:41:48.523Z,14.54
2019-05-09T08:44:21.879Z,14.65
2019-05-09T08:46:57.405Z,14.72
2019-05-09T08:49:39.159Z,14.80
2019-05-09T08:52:16.342Z,14.76
2019-05-09T08:54:51.960Z,14.74
2019-05-09T08:57:28.641Z,14.86
2019-05-09T09:00:01.806Z,14.98
2019-05-09T09:02:34.996Z,15.17
2019-05-09T09:05:09.150Z,15.41
2019-05-09T09:07:42.280Z,15.57
2019-05-09T09:10:18.710Z,15.60
2019-05-09T09:12:52.239Z,15.66
2019-05-09T09:15:50.088Z,15.73
2019-05-09T09:18:01.897Z,15.93
2019-05-09T09:20:37.986Z,15.95
2019-05-09T09:23:11.746Z,15.91
2019-05-09T09:25:45.688Z,15.86
2019-05-09T09:28:20.092Z,15.95
2019-05-09T09:30:54.119Z,16.05
2019-05-09T09:33:28.104Z,16.11
2019-05-09T09:36:02.275Z,16.12
2019-05-09T09:38:37.571Z,16.10
2019-05-09T09:41:11.486Z,15.98
2019-05-09T09:43:47.650Z,15.97
2019-05-09T09:46:21.347Z,16.09
2019-05-09T09:48:55.251Z,16.13
2019-05-09T09:51:29.383Z,16.18
2019-05-09T09:54:02.710Z,16.27
2019-05-09T09:56:38.622Z,16.25
2019-05-09T09:59:14.117Z,16.33
2019-05-09T10:02:01.236Z,16.62
2019-05-09T10:04:37.540Z,16.87
2019-05-09T10:07:11.157Z,16.84
2019-05-09T10:09:44.592Z,17.01
2019-05-09T10:12:19.060Z,17.20
2019-05-09T10:14:57.854Z,17.09
2019-05-09T10:17:47.688Z,17.00
2019-05-09T10:20:29.109Z,17.06
2019-05-09T10:23:11.136Z,17.10
2019-05-09T10:25:38.363Z,17.24
2019-05-09T10:28:12.350Z,17.44
2019-05-09T10:30:48.491Z,17.19
2019-05-09T10:33:22.914Z,17.01
2019-05-09T10:36:03.687Z,17.03
2019-05-09T10:38:33.097Z,17.05
2019-05-09T10:41:10.997Z,17.00
2019-05-09T10:43:50.332Z,17.03
2019-05-09T10:46:51.360Z,17.08
2019-05-09T10:49:13.834Z,16.98
2019-05-09T10:51:48.524Z,16.82
2019-05-09T10:54:22.716Z,16.65
2019-05-09T10:56:57.994Z,16.74
2019-05-09T10:59:31.034Z,16.71
2019-05-09T11:02:05.006Z,16.54
2019-05-09T11:04:42.928Z,16.53
2019-05-09T11:07:14.830Z,16.60
2019-05-09T11:09:48.923Z,16.61
2019-05-09T11:12:22.292Z,16.65
2019-05-09T11:14:59.120Z,16.53
2019-05-09T11:17:31.859Z,16.45
2019-05-09T11:20:09.101Z,16.35
2019-05-09T11:22:43.051Z,16.25
2019-05-09T11:25:17.245Z,16.21
2019-05-09T11:28:06.937Z,16.14
2019-05-09T11:30:28.159Z,16.14
2019-05-09T11:33:02.283Z,16.20
2019-05-09T11:35:37.974Z,16.20
2019-05-09T11:38:12.518Z,16.18
2019-05-09T11:40:48.335Z,16.29
2019-05-09T11:43:22.638Z,16.41
2019-05-09T11:45:58.626Z,16.54
2019-05-09T11:48:32.488Z,16.57
2019-05-09T11:51:08.830Z,16.59
2019-05-09T11:53:42.489Z,16.60
2019-05-09T11:56:17.704Z,16.68
2019-05-09T11:58:51.508Z,16.68
2019-05-09T12:01:25.575Z,16.72
2019-05-09T12:03:58.739Z,16.76
2019-05-09T12:06:32.959Z,16.74
2019-05-09T12:09:09.058Z,16.70
2019-05-09T12:11:44.649Z,16.70
2019-05-09T12:14:18.747Z,16.61
2019-05-09T12:16:51.880Z,16.61
2019-05-09T12:19:29.317Z,16.51
2019-05-09T12:22:02.118Z,16.41
2019-05-09T12:24:38.430Z,16.32
2019-05-09T12:27:11.929Z,16.37
2019-05-09T12:29:48.331Z,16.38
2019-05-09T12:32:21.883Z,16.36
2019-05-09T12:34:57.585Z,16.44
2019-05-09T12:37:31.035Z,16.55
2019-05-09T12:40:07.688Z,16.34
2019-05-09T12:42:42.118Z,16.18
2019-05-09T12:45:18.033Z,16.25
2019-05-09T12:48:06.048Z,16.28
2019-05-09T12:50:29.401Z,16.28
2019-05-09T12:53:03.693Z,16.22
2019-05-09T12:55:38.519Z,16.18
2019-05-09T12:58:27.969Z,16.26
2019-05-09T13:01:03.381Z,16.23
2019-05-09T13:03:38.256Z,16.20
2019-05-09T13:06:12.398Z,16.19
2019-05-09T13:08:47.983Z,16.06
2019-05-09T13:11:22.253Z,16.05
2019-05-09T13:13:55.340Z,15.94
2019-05-09T13:16:50.680Z,15.80
2019-05-09T13:19:41.057Z,15.76
2019-05-09T13:22:15.063Z,15.60
2019-05-09T13:24:48.999Z,15.69
2019-05-09T13:27:22.997Z,15.67
2019-05-09T13:29:56.937Z,15.64
2019-05-09T13:32:30.895Z,15.58
2019-05-09T13:35:05.872Z,15.60
2019-05-09T13:37:40.191Z,15.67
2019-05-09T13:40:18.825Z,15.63
2019-05-09T13:42:52.064Z,15.61
2019-05-09T13:45:25.240Z,15.64
2019-05-09T13:47:59.375Z,15.65
2019-05-09T13:50:33.527Z,15.65
2019-05-09T13:53:07.733Z,15.64
2019-05-09T13:55:41.761Z,15.58
2019-05-09T13:58:15.662Z,15.60
2019-05-09T14:00:59.290Z,15.61
2019-05-09T14:03:28.114Z,15.61
2019-05-09T14:06:01.809Z,15.52
2019-05-09T14:08:38.790Z,15.42
2019-05-09T14:11:11.538Z,15.39
2019-05-09T14:13:45.418Z,15.34
2019-05-09T14:16:22.364Z,15.29
2019-05-09T14:18:55.868Z,15.26
2019-05-09T14:21:30.715Z,15.23
2019-05-09T14:24:14.210Z,15.21
2019-05-09T14:26:39.242Z,15.22
2019-05-09T14:29:13.547Z,15.24
2019-05-09T14:31:47.652Z,15.14
2019-05-09T14:34:21.749Z,15.03
2019-05-09T14:36:58.458Z,14.96
2019-05-09T14:39:31.613Z,14.75
2019-05-09T14:42:09.072Z,14.67
2019-05-09T14:44:41.983Z,14.64
2019-05-09T14:47:17.716Z,14.60
2019-05-09T14:49:51.966Z,14.58
2019-05-09T14:52:28.312Z,14.53
2019-05-09T14:55:01.934Z,14.44
2019-05-09T14:57:38.380Z,14.36
2019-05-09T15:00:13.051Z,14.30
2019-05-09T15:02:48.849Z,14.22
2019-05-09T15:05:23.147Z,14.12
2019-05-09T15:08:00.559Z,14.04
2019-05-09T15:10:35.295Z,13.93
2019-05-09T15:13:09.638Z,13.76
2019-05-09T15:15:43.789Z,13.65
2019-05-09T15:18:17.653Z,13.56
2019-05-09T15:20:53.485Z,13.40
2019-05-09T15:23:29.241Z,13.40
2019-05-09T15:26:03.104Z,13.34
2019-05-09T15:28:38.609Z,13.34
2019-05-09T15:31:12.701Z,13.34
2019-05-09T15:33:48.632Z,13.33
2019-05-09T15:36:22.381Z,13.36
2019-05-09T15:38:55.530Z,13.41
2019-05-09T15:41:29.662Z,13.44
2019-05-09T15:44:03.242Z,13.41
2019-05-09T15:46:42.025Z,13.31
2019-05-09T15:49:18.357Z,13.21
2019-05-09T15:51:51.803Z,13.18
2019-05-09T15:54:25.865Z,13.16
2019-05-09T15:57:01.983Z,13.09
2019-05-09T15:59:38.960Z,13.07
2019-05-09T16:02:13.588Z,13.04
2019-05-09T16:04:47.711Z,13.01
2019-05-09T16:07:21.095Z,12.99
2019-05-09T16:09:55.104Z,12.99
2019-05-09T16:12:29.561Z,13.02
2019-05-09T16:15:07.780Z,13.04
2019-05-09T16:17:43.635Z,13.04
2019-05-09T16:20:36.042Z,12.98
2019-05-09T16:22:57.129Z,12.94
2019-05-09T16:25:30.564Z,12.84
2019-05-09T16:28:08.009Z,12.75
2019-05-09T16:30:44.625Z,12.73
2019-05-09T16:33:21.959Z,12.65
2019-05-09T16:35:59.632Z,12.59
2019-05-09T16:38:42.977Z,12.58
2019-05-09T16:41:10.474Z,12.60
2019-05-09T16:43:44.770Z,12.58
2019-05-09T16:46:19.256Z,12.58
2019-05-09T16:48:55.217Z,12.54
2019-05-09T16:51:31.090Z,12.54
2019-05-09T16:54:07.499Z,12.47
2019-05-09T16:56:41.845Z,12.43
2019-05-09T16:59:18.197Z,12.45
2019-05-09T17:01:53.644Z,12.43
2019-05-09T17:04:29.523Z,12.37
2019-05-09T17:07:08.418Z,12.35
2019-05-09T17:09:45.231Z,12.34
2019-05-09T17:12:22.547Z,12.34
2019-05-09T17:14:59.735Z,12.33
2019-05-09T17:17:42.429Z,12.27
2019-05-09T17:20:19.888Z,12.27
2019-05-09T17:23:14.780Z,12.24
2019-05-09T17:25:49.932Z,12.21
2019-05-09T17:28:28.284Z,12.18
2019-05-09T17:31:02.138Z,12.14
2019-05-09T17:33:37.986Z,12.14
2019-05-09T17:36:13.529Z,12.08
2019-05-09T17:38:49.070Z,12.04
2019-05-09T17:41:23.793Z,12.02
2019-05-09T17:43:58.368Z,11.98
2019-05-09T17:46:39.921Z,11.93
2019-05-09T17:49:17.345Z,11.89
2019-05-09T17:51:52.363Z,11.87
2019-05-09T17:57:20.214Z,11.84
2019-05-09T17:59:59.423Z,11.88
2019-05-09T18:02:33.954Z,11.89
2019-05-09T18:05:09.483Z,11.82
2019-05-09T18:07:43.582Z,11.75
2019-05-09T18:10:18.324Z,11.72
2019-05-09T18:12:52.092Z,11.67
2019-05-09T18:15:28.229Z,11.64
2019-05-09T18:18:03.409Z,11.61
2019-05-09T18:20:38.534Z,11.54
2019-05-09T18:23:12.656Z,11.50
2019-05-09T18:25:49.456Z,11.48
2019-05-09T18:28:23.770Z,11.48
2019-05-09T18:31:00.492Z,11.46
2019-05-09T18:33:53.978Z,11.40
2019-05-09T18:36:30.501Z,11.38
2019-05-09T18:39:07.575Z,11.36
2019-05-09T18:41:41.381Z,11.30
2019-05-09T18:44:15.424Z,11.23
2019-05-09T18:46:48.968Z,11.20
2019-05-09T18:49:23.491Z,11.18
2019-05-09T18:52:03.712Z,11.14
2019-05-09T18:54:34.522Z,11.14
2019-05-09T18:57:09.085Z,11.14
2019-05-09T18:59:43.978Z,11.15
2019-05-09T19:02:18.375Z,11.15
2019-05-09T19:04:53.190Z,11.12
2019-05-09T19:07:28.258Z,11.06
2019-05-09T19:10:03.460Z,11.03
2019-05-09T19:12:38.114Z,11.04
2019-05-09T19:15:24.414Z,11.03
2019-05-09T19:18:00.935Z,11.01
2019-05-09T19:20:37.429Z,10.98
2019-05-09T19:23:12.210Z,10.91
2019-05-09T19:25:47.047Z,10.85
2019-05-09T19:28:24.053Z,10.85
2019-05-09T19:30:57.367Z,10.81
2019-05-09T19:33:31.723Z,10.75
2019-05-09T19:36:06.226Z,10.68
2019-05-09T19:38:40.822Z,10.64
2019-05-09T19:41:15.020Z,10.63
2019-05-09T19:43:49.147Z,10.60
2019-05-09T19:46:23.369Z,10.59
2019-05-09T19:48:57.608Z,10.57
2019-05-09T19:51:31.906Z,10.56
2019-05-09T19:54:06.485Z,10.54
2019-05-09T19:56:40.971Z,10.53
2019-05-09T19:59:15.805Z,10.53
2019-05-09T20:01:50.700Z,10.52
2019-05-09T20:04:25.146Z,10.54
2019-05-09T20:06:59.534Z,10.52
2019-05-09T20:09:35.882Z,10.52
2019-05-09T20:12:14.732Z,10.52
2019-05-09T20:14:50.596Z,10.47
2019-05-09T20:17:25.016Z,10.46
2019-05-09T20:19:59.527Z,10.45
2019-05-09T20:22:33.900Z,10.43
2019-05-09T20:25:08.620Z,10.43
2019-05-09T20:27:43.396Z,10.39
2019-05-09T20:30:18.143Z,10.38
2019-05-09T20:32:52.268Z,10.37
2019-05-09T20:35:25.601Z,10.36
2019-05-09T20:37:59.999Z,10.32
2019-05-09T20:40:34.545Z,10.31
2019-05-09T20:43:09.485Z,10.29
2019-05-09T20:45:44.185Z,10.28
2019-05-09T20:48:19.193Z,10.27
2019-05-09T20:50:53.781Z,10.24
2019-05-09T20:53:29.027Z,10.25
2019-05-09T20:56:03.819Z,10.23
2019-05-09T20:58:38.847Z,10.22
2019-05-09T21:01:13.977Z,10.24
2019-05-09T21:03:59.767Z,10.25
2019-05-09T21:06:25.059Z,10.26
2019-05-09T21:08:59.349Z,10.28
2019-05-09T21:11:33.937Z,10.29
2019-05-09T21:14:08.257Z,10.31
2019-05-09T21:16:42.707Z,10.36
2019-05-09T21:19:17.660Z,10.37
2019-05-09T21:21:52.444Z,10.40
2019-05-09T21:24:26.806Z,10.45
2019-05-09T21:27:01.196Z,10.47
2019-05-09T21:29:35.738Z,10.50
2019-05-09T21:32:10.307Z,10.49
2019-05-09T21:34:44.721Z,10.46
2019-05-09T21:37:18.902Z,10.44
2019-05-09T21:39:52.780Z,10.45
2019-05-09T21:42:27.008Z,10.19
2019-05-09T21:45:01.482Z,10.19
2019-05-09T21:47:35.993Z,10.29
2019-05-09T21:50:10.660Z,10.26
2019-05-09T21:52:45.072Z,10.20
2019-05-09T21:55:19.575Z,10.17
2019-05-09T21:57:54.096Z,10.14
2019-05-09T22:00:32.529Z,10.12
2019-05-09T22:03:07.175Z,10.12
2019-05-09T22:05:41.323Z,10.12
2019-05-09T22:08:15.727Z,10.11
2019-05-09T22:10:49.736Z,10.11
2019-05-09T22:13:23.840Z,10.10
2019-05-09T22:15:57.763Z,10.09
2019-05-09T22:18:31.858Z,10.07
2019-05-09T22:21:05.256Z,10.09
2019-05-09T22:23:39.443Z,10.08
2019-05-09T22:26:13.452Z,10.06
2019-05-09T22:28:47.694Z,10.07
2019-05-09T22:31:21.106Z,10.07
2019-05-09T22:33:55.235Z,10.09
2019-05-09T22:36:28.820Z,10.09
2019-05-09T22:39:02.870Z,10.10
2019-05-09T22:41:36.118Z,10.08
2019-05-09T22:44:10.215Z,10.09
2019-05-09T22:46:43.565Z,10.07
2019-05-09T22:49:17.593Z,10.05
2019-05-09T22:51:51.906Z,10.03
2019-05-09T22:54:26.028Z,10.04
2019-05-09T22:57:00.263Z,10.03
2019-05-09T22:59:34.263Z,10.06
2019-05-09T23:02:08.256Z,10.07
2019-05-09T23:04:41.413Z,10.03
2019-05-09T23:07:15.565Z,10.01
2019-05-09T23:09:49.871Z,9.96
2019-05-09T23:12:23.823Z,9.95
2019-05-09T23:14:58.004Z,9.95
2019-05-09T23:17:32.163Z,9.98
2019-05-09T23:20:09.472Z,9.96
2019-05-09T23:22:43.509Z,9.97
2019-05-09T23:25:16.691Z,9.95
2019-05-09T23:27:50.691Z,9.95
2019-05-09T23:30:24.917Z,9.95
2019-05-09T23:32:58.745Z,9.96
2019-05-09T23:35:32.712Z,9.94
2019-05-09T23:38:06.761Z,9.95
2019-05-09T23:40:39.891Z,9.97
2019-05-09T23:43:13.677Z,10.01
2019-05-09T23:45:47.735Z,10.02
2019-05-09T23:48:21.056Z,10.04
2019-05-09T23:50:55.174Z,10.04
2019-05-09T23:53:32.723Z,10.02
2019-05-09T23:56:24.685Z,10.01
2019-05-09T23:59:16.993Z,9.99
